Time;durP1;ratioP1;P1;durP2;ratioP2;P2;SDS_P1;SDS_P2;PMS_P1;PMS_P2;Temp;Humidity;BMP_temperature;BMP_pressure;BME280_temperature;BME280_humidity;BME280_pressure;Samples;Min_cycle;Max_cycle;Signal;HPM_P1;HPM_P2
2023/12/11 00:00:08;;;;;;;6.20;4.10;;;23.80;49.30;;;;;;222469;1260;22757;-51
2023/12/11 00:05:33;;;;;;;6.20;4.10;;;24.10;48.40;;;;;;222690;1260;24229;-47
2023/12/11 00:10:37;;;;;;;8.40;3.60;;;24.20;48.90;;;;;;222278;1263;22525;-51
2023/12/11 00:15:41;;;;;;;7.10;3.40;;;24.20;48.90;;;;;;222442;1264;23921;-46
2023/12/11 00:20:45;;;;;;;3.40;3.10;;;24.10;48.90;;;;;;222537;1257;22517;-49
2023/12/11 00:25:49;;;;;;;5.00;3.30;;;24.10;49.30;;;;;;222320;1254;26559;-46
2023/12/11 00:30:54;;;;;;;4.90;3.20;;;24.00;49.40;;;;;;222083;1264;22470;-47
2023/12/11 00:35:58;;;;;;;5.10;3.20;;;23.90;49.70;;;;;;222147;1266;23824;-46
2023/12/11 00:41:03;;;;;;;5.10;3.10;;;23.80;49.90;;;;;;222284;1264;24317;-48
2023/12/11 00:46:11;;;;;;;4.40;3.10;;;23.70;49.90;;;;;;222243;1262;22553;-49
2023/12/11 00:51:20;;;;;;;5.70;3.50;;;23.70;50.50;;;;;;222658;1266;22630;-46
2023/12/11 00:56:24;;;;;;;5.50;3.10;;;23.60;50.10;;;;;;222507;1269;22645;-46
2023/12/11 01:01:28;;;;;;;3.30;2.90;;;23.50;50.10;;;;;;222415;1263;24193;-50
2023/12/11 01:06:33;;;;;;;4.40;2.90;;;23.50;50.40;;;;;;222141;1263;26113;-47
2023/12/11 01:11:37;;;;;;;7.20;2.90;;;23.70;50.10;;;;;;222448;1252;22556;-46
2023/12/11 01:16:42;;;;;;;6.00;2.80;;;24.00;49.20;;;;;;222472;1267;24205;-47
2023/12/11 01:21:46;;;;;;;4.10;3.30;;;24.20;48.70;;;;;;222710;1264;22533;-48
2023/12/11 01:26:50;;;;;;;5.70;2.90;;;24.30;48.40;;;;;;222571;1263;22590;-48
2023/12/11 01:31:54;;;;;;;2.60;2.20;;;24.30;48.30;;;;;;222801;1254;22904;-50
2023/12/11 01:36:59;;;;;;;3.80;2.60;;;24.20;48.40;;;;;;222158;1266;24317;-48
2023/12/11 01:42:04;;;;;;;3.40;2.50;;;24.20;48.70;;;;;;222682;1263;24072;-47
2023/12/11 01:47:08;;;;;;;2.90;2.50;;;24.10;48.70;;;;;;222636;1263;22647;-46
2023/12/11 01:52:13;;;;;;;4.70;2.60;;;24.00;48.90;;;;;;222306;1259;25392;-46
2023/12/11 01:57:18;;;;;;;3.60;3.10;;;23.90;49.10;;;;;;222422;1259;25355;-49
2023/12/11 02:02:22;;;;;;;3.80;3.20;;;23.80;49.40;;;;;;222567;1257;24199;-46
2023/12/11 02:07:26;;;;;;;3.40;2.50;;;23.70;49.40;;;;;;222334;1267;22738;-50
2023/12/11 02:12:31;;;;;;;5.90;2.80;;;23.60;49.60;;;;;;222488;1268;25340;-48
2023/12/11 02:17:37;;;;;;;2.40;2.20;;;23.60;49.60;;;;;;222475;1264;22806;-47
2023/12/11 02:22:41;;;;;;;4.10;2.60;;;23.50;49.80;;;;;;222332;1260;22600;-48
2023/12/11 02:27:45;;;;;;;3.70;2.40;;;23.70;49.20;;;;;;222380;1264;24234;-49
2023/12/11 02:32:51;;;;;;;4.40;2.30;;;24.00;48.70;;;;;;222341;1260;22528;-50
2023/12/11 02:37:56;;;;;;;2.80;2.10;;;24.10;48.50;;;;;;222651;1268;24399;-47
2023/12/11 02:43:00;;;;;;;2.80;2.30;;;24.20;49.10;;;;;;222441;1260;22517;-46
2023/12/11 02:48:05;;;;;;;3.90;2.40;;;24.20;47.90;;;;;;222524;1253;22511;-46
2023/12/11 02:53:09;;;;;;;3.10;2.20;;;24.10;48.60;;;;;;222569;1257;22636;-50
2023/12/11 02:58:13;;;;;;;3.70;2.30;;;24.10;49.10;;;;;;222625;1264;23923;-46
2023/12/11 03:03:17;;;;;;;3.10;2.20;;;23.90;48.90;;;;;;222297;1263;23499;-49
2023/12/11 03:08:22;;;;;;;2.60;2.20;;;23.90;49.40;;;;;;222644;1264;24304;-49
2023/12/11 03:13:26;;;;;;;3.60;2.50;;;23.80;49.20;;;;;;222199;1260;22515;-47
2023/12/11 03:18:30;;;;;;;2.50;2.10;;;23.70;49.40;;;;;;222593;1260;25332;-48
2023/12/11 03:23:35;;;;;;;2.40;2.00;;;23.70;49.40;;;;;;222530;1264;23918;-48
2023/12/11 03:28:39;;;;;;;3.00;1.90;;;23.60;49.30;;;;;;222915;1263;25455;-49
2023/12/11 03:33:44;;;;;;;4.20;2.00;;;23.50;49.60;;;;;;222522;1268;22626;-46
2023/12/11 03:38:48;;;;;;;3.10;2.30;;;23.70;48.90;;;;;;222410;1268;24208;-47
2023/12/11 03:43:52;;;;;;;3.60;2.00;;;24.00;48.60;;;;;;222430;1260;22548;-47
2023/12/11 03:48:56;;;;;;;2.50;2.00;;;24.20;48.50;;;;;;222520;1260;23126;-47
2023/12/11 03:54:01;;;;;;;2.40;1.90;;;24.30;48.10;;;;;;222437;1268;24199;-50
2023/12/11 03:59:06;;;;;;;3.30;2.50;;;24.30;47.80;;;;;;222229;1260;22649;-47
2023/12/11 04:04:10;;;;;;;2.60;2.40;;;24.30;48.10;;;;;;222349;1260;23857;-50
2023/12/11 04:09:14;;;;;;;2.80;2.00;;;24.20;48.20;;;;;;222182;1257;24222;-44
2023/12/11 04:14:19;;;;;;;2.10;2.00;;;24.10;48.40;;;;;;222533;1254;22723;-45
2023/12/11 04:19:23;;;;;;;2.10;1.90;;;23.90;49.20;;;;;;222576;1254;22992;-46
2023/12/11 04:24:27;;;;;;;3.60;2.10;;;23.90;48.70;;;;;;222628;1263;24593;-47
2023/12/11 04:29:32;;;;;;;2.80;2.20;;;23.90;48.80;;;;;;222586;1267;22565;-46
2023/12/11 04:34:36;;;;;;;2.10;1.90;;;23.70;48.90;;;;;;222522;1268;22564;-48
2023/12/11 04:39:40;;;;;;;2.60;2.40;;;23.60;48.90;;;;;;222437;1260;23772;-46
2023/12/11 04:44:46;;;;;;;2.30;1.80;;;23.60;49.10;;;;;;222339;1268;22586;-47
2023/12/11 04:49:50;;;;;;;2.90;2.10;;;23.50;49.10;;;;;;222334;1266;22632;-49
2023/12/11 04:54:55;;;;;;;2.10;1.90;;;23.50;49.40;;;;;;221976;1264;22511;-49
2023/12/11 04:59:59;;;;;;;2.20;2.00;;;23.70;48.90;;;;;;222085;1266;24293;-47
2023/12/11 05:05:04;;;;;;;3.10;1.70;;;23.90;48.80;;;;;;222062;1266;22635;-49
2023/12/11 05:10:09;;;;;;;3.40;1.90;;;24.10;48.40;;;;;;222206;1264;24180;-47
2023/12/11 05:15:14;;;;;;;2.10;1.90;;;24.20;48.20;;;;;;222399;1258;24180;-49
2023/12/11 05:20:19;;;;;;;1.90;1.80;;;24.20;48.40;;;;;;222609;1264;25306;-47
2023/12/11 05:25:23;;;;;;;2.40;1.80;;;24.10;48.60;;;;;;222332;1260;24222;-46
2023/12/11 05:30:27;;;;;;;2.50;1.70;;;24.10;48.80;;;;;;222374;1268;22767;-45
2023/12/11 05:35:31;;;;;;;1.80;1.70;;;23.90;49.00;;;;;;222467;1264;22802;-45
2023/12/11 05:40:36;;;;;;;2.00;1.80;;;23.80;49.10;;;;;;222475;1260;22567;-46
2023/12/11 05:45:40;;;;;;;2.80;1.90;;;23.70;49.60;;;;;;222419;1268;22513;-46
2023/12/11 05:50:44;;;;;;;2.50;1.80;;;23.70;49.60;;;;;;222519;1265;22528;-46
2023/12/11 05:55:49;;;;;;;1.90;1.60;;;23.60;49.60;;;;;;222511;1254;22514;-47
2023/12/11 06:00:53;;;;;;;1.30;1.20;;;23.70;49.20;;;;;;222499;1245;24221;-47
2023/12/11 06:06:00;;;;;;;1.60;1.50;;;23.60;49.30;;;;;;222214;1264;24068;-49
2023/12/11 06:11:05;;;;;;;1.50;1.30;;;23.50;49.30;;;;;;222548;1263;24225;-49
2023/12/11 06:16:10;;;;;;;1.40;1.30;;;23.40;49.60;;;;;;222500;1266;25555;-49
2023/12/11 06:21:19;;;;;;;3.10;1.50;;;23.30;49.80;;;;;;222546;1263;22566;-47
2023/12/11 06:26:36;;;;;;;1.60;1.30;;;23.30;49.80;;;;;;222105;1263;258946;-46
2023/12/11 06:31:40;;;;;;;2.50;1.60;;;23.20;49.90;;;;;;222294;1263;22637;-49
2023/12/11 06:36:45;;;;;;;1.50;1.30;;;23.20;49.90;;;;;;222182;1262;22528;-46
2023/12/11 06:41:49;;;;;;;2.80;1.20;;;23.10;50.20;;;;;;222319;1253;25300;-50
2023/12/11 06:46:54;;;;;;;2.00;1.70;;;23.00;50.50;;;;;;222354;1261;22617;-47
2023/12/11 06:51:58;;;;;;;2.70;1.50;;;22.90;51.10;;;;;;223063;1263;22917;-50
2023/12/11 06:57:03;;;;;;;3.90;1.30;;;23.30;50.80;;;;;;222346;1262;24234;-48
2023/12/11 07:02:07;;;;;;;1.60;1.40;;;23.70;50.30;;;;;;222515;1263;22507;-50
2023/12/11 07:07:12;;;;;;;1.30;1.10;;;23.90;49.70;;;;;;222158;1266;24227;-50
2023/12/11 07:12:16;;;;;;;4.30;1.50;;;24.00;49.60;;;;;;222352;1263;22523;-50
2023/12/11 07:17:21;;;;;;;4.70;1.30;;;23.90;49.70;;;;;;222172;1268;24199;-47
2023/12/11 07:22:25;;;;;;;14.50;1.60;;;24.00;50.00;;;;;;222141;1268;22627;-50
2023/12/11 07:27:30;;;;;;;3.30;1.10;;;24.00;50.20;;;;;;222405;1263;25448;-50
2023/12/11 07:32:34;;;;;;;2.40;1.10;;;23.90;50.40;;;;;;222505;1266;22520;-51
2023/12/11 07:37:41;;;;;;;4.10;1.10;;;23.80;50.70;;;;;;222981;1263;24197;-49
2023/12/11 07:42:45;;;;;;;1.90;1.40;;;23.60;51.00;;;;;;222791;1262;24262;-47
2023/12/11 07:47:49;;;;;;;3.30;1.20;;;23.70;51.10;;;;;;222299;1265;24176;-46
2023/12/11 07:52:53;;;;;;;4.50;1.60;;;23.60;51.00;;;;;;223138;1268;24236;-48
2023/12/11 07:57:58;;;;;;;2.90;1.20;;;23.70;50.70;;;;;;222392;1266;22609;-47
2023/12/11 08:03:05;;;;;;;7.20;1.50;;;23.30;51.70;;;;;;222128;1266;24176;-50
2023/12/11 08:08:10;;;;;;;8.20;1.60;;;23.30;51.80;;;;;;222320;1257;25599;-47
2023/12/11 08:13:14;;;;;;;5.70;1.20;;;23.10;51.80;;;;;;222142;1267;22505;-47
2023/12/11 08:18:18;;;;;;;3.60;1.40;;;23.10;51.50;;;;;;222435;1264;22511;-46
2023/12/11 08:23:23;;;;;;;3.00;1.30;;;23.10;51.60;;;;;;222340;1265;22646;-48
2023/12/11 08:28:27;;;;;;;2.60;1.20;;;22.90;50.80;;;;;;222262;1252;22514;-49
2023/12/11 08:33:31;;;;;;;4.40;1.30;;;23.00;50.80;;;;;;223331;1268;22511;-48
2023/12/11 08:38:36;;;;;;;2.20;1.30;;;23.40;50.10;;;;;;222743;1268;24222;-49
2023/12/11 08:43:40;;;;;;;2.90;1.70;;;23.60;49.70;;;;;;222868;1263;23490;-47
2023/12/11 08:48:44;;;;;;;3.30;1.50;;;23.70;49.30;;;;;;222845;1257;22521;-60
2023/12/11 08:53:49;;;;;;;4.30;1.50;;;23.80;49.50;;;;;;222912;1260;22564;-49
2023/12/11 08:58:53;;;;;;;1.90;1.40;;;23.70;49.10;;;;;;222490;1254;22511;-46
2023/12/11 09:03:57;;;;;;;1.70;1.20;;;23.60;49.40;;;;;;222595;1260;22526;-49
2023/12/11 09:09:02;;;;;;;1.20;1.00;;;23.50;49.60;;;;;;222803;1257;24340;-48
2023/12/11 09:14:07;;;;;;;1.40;1.20;;;23.40;49.70;;;;;;222593;1263;25264;-47
2023/12/11 09:19:11;;;;;;;2.40;1.00;;;23.30;50.00;;;;;;222609;1267;22556;-47
2023/12/11 09:24:16;;;;;;;1.90;1.20;;;23.20;50.10;;;;;;222587;1260;22510;-45
2023/12/11 09:29:20;;;;;;;1.90;1.30;;;23.10;50.10;;;;;;222643;1261;22510;-47
2023/12/11 09:34:24;;;;;;;1.40;1.00;;;23.10;50.00;;;;;;222554;1260;23129;-46
2023/12/11 09:39:29;;;;;;;2.20;1.40;;;23.00;50.30;;;;;;223051;1260;22996;-51
2023/12/11 09:44:34;;;;;;;1.40;1.30;;;22.90;50.20;;;;;;223011;1261;22626;-50
2023/12/11 09:49:38;;;;;;;1.30;1.10;;;22.90;50.20;;;;;;223171;1263;22511;-46
2023/12/11 09:54:43;;;;;;;2.40;1.60;;;22.90;50.50;;;;;;222702;1267;22626;-50
2023/12/11 09:59:50;;;;;;;1.20;0.90;;;22.90;50.30;;;;;;222647;1268;24271;-48
2023/12/11 10:05:08;;;;;;;1.60;1.20;;;23.10;49.80;;;;;;223202;1264;22520;-47
2023/12/11 10:10:30;;;;;;;1.60;1.20;;;23.50;49.30;;;;;;222548;1267;22523;-49
2023/12/11 10:15:36;;;;;;;1.10;1.00;;;24.00;48.00;;;;;;223003;1267;22628;-49
2023/12/11 10:20:41;;;;;;;2.20;1.10;;;24.20;47.50;;;;;;222534;1253;24234;-49
2023/12/11 10:25:54;;;;;;;2.10;1.30;;;24.20;47.50;;;;;;222879;1268;22527;-51
2023/12/11 10:31:01;;;;;;;1.40;1.30;;;24.10;47.80;;;;;;223029;1265;25271;-50
2023/12/11 10:36:12;;;;;;;1.60;1.40;;;24.10;48.40;;;;;;222570;1268;22517;-47
2023/12/11 10:41:26;;;;;;;1.80;1.40;;;23.90;48.80;;;;;;222529;1267;22696;-46
2023/12/11 10:46:31;;;;;;;1.20;1.10;;;23.70;48.90;;;;;;222622;1259;22520;-49
2023/12/11 10:51:36;;;;;;;1.90;1.50;;;23.70;48.70;;;;;;222468;1266;24186;-47
2023/12/11 10:56:43;;;;;;;1.70;1.50;;;23.70;48.90;;;;;;222745;1264;24368;-51
2023/12/11 11:01:50;;;;;;;1.30;1.10;;;23.70;48.80;;;;;;222627;1265;23921;-50
2023/12/11 11:07:08;;;;;;;1.20;1.10;;;23.70;48.60;;;;;;222656;1265;22524;-48
2023/12/11 11:12:41;;;;;;;1.10;1.00;;;23.60;48.80;;;;;;222568;1266;22599;-48
2023/12/11 11:18:10;;;;;;;1.40;1.10;;;23.50;48.90;;;;;;222391;1261;22798;-48
2023/12/11 11:23:18;;;;;;;1.70;1.10;;;23.40;49.00;;;;;;222943;1253;25354;-48
2023/12/11 11:28:44;;;;;;;1.40;1.00;;;23.30;49.10;;;;;;223046;1260;22609;-50
2023/12/11 11:33:52;;;;;;;1.30;1.20;;;23.30;49.50;;;;;;222753;1266;24165;-47
2023/12/11 11:38:58;;;;;;;2.30;1.40;;;23.30;49.10;;;;;;222769;1259;22527;-48
2023/12/11 11:44:07;;;;;;;1.30;1.00;;;23.20;49.20;;;;;;222944;1266;22697;-46
2023/12/11 11:49:24;;;;;;;1.40;1.30;;;23.10;49.30;;;;;;222677;1266;22585;-50
2023/12/11 11:54:31;;;;;;;0.90;0.90;;;23.10;49.70;;;;;;222459;1267;24630;-51
2023/12/11 11:59:43;;;;;;;1.80;1.30;;;23.10;49.40;;;;;;223089;1266;22521;-48
2023/12/11 12:04:46;;;;;;;;;;;23.00;49.40;;;;;;223020;1266;22518;-48
2023/12/11 12:09:59;;;;;;;1.00;0.90;;;23.10;49.20;;;;;;223355;1261;22582;-47
2023/12/11 12:15:07;;;;;;;1.80;1.30;;;23.30;48.90;;;;;;223074;1268;22537;-48
2023/12/11 12:20:14;;;;;;;1.80;1.20;;;23.30;49.00;;;;;;222899;1257;24237;-47
2023/12/11 12:25:18;;;;;;;1.30;1.20;;;23.20;49.00;;;;;;222645;1266;22567;-46
2023/12/11 12:30:23;;;;;;;2.90;1.20;;;23.10;49.20;;;;;;222784;1260;22562;-47
2023/12/11 12:35:28;;;;;;;1.60;1.10;;;23.10;49.40;;;;;;222519;1261;22634;-46
2023/12/11 12:40:33;;;;;;;3.60;1.00;;;23.20;49.90;;;;;;222760;1266;22626;-47
2023/12/11 12:45:38;;;;;;;2.40;1.80;;;23.20;50.00;;;;;;222735;1261;24249;-48
2023/12/11 12:50:42;;;;;;;1.30;1.20;;;23.20;49.70;;;;;;222213;1268;22561;-48
2023/12/11 12:55:47;;;;;;;2.00;1.40;;;23.10;49.70;;;;;;222445;1268;22520;-47
2023/12/11 13:00:58;;;;;;;1.00;1.00;;;23.10;50.20;;;;;;222468;1265;22512;-47
2023/12/11 13:06:04;;;;;;;1.20;1.10;;;23.10;49.80;;;;;;222252;1250;24234;-48
2023/12/11 13:11:08;;;;;;;1.10;1.10;;;23.20;49.80;;;;;;222525;1267;23847;-47
2023/12/11 13:16:12;;;;;;;1.60;1.20;;;23.20;49.70;;;;;;222177;1263;23936;-48
2023/12/11 13:21:17;;;;;;;1.40;1.30;;;23.10;49.50;;;;;;222686;1260;25147;-48
2023/12/11 13:26:21;;;;;;;1.30;1.10;;;23.10;49.40;;;;;;222986;1261;22533;-48
2023/12/11 13:31:25;;;;;;;2.00;1.40;;;23.30;49.20;;;;;;222742;1265;22920;-50
2023/12/11 13:36:29;;;;;;;2.80;1.20;;;23.60;48.80;;;;;;222675;1263;24386;-48
2023/12/11 13:41:38;;;;;;;1.40;1.20;;;23.80;48.40;;;;;;222798;1254;22563;-50
2023/12/11 13:46:42;;;;;;;1.80;1.40;;;23.90;48.10;;;;;;222613;1266;22629;-48
2023/12/11 13:51:46;;;;;;;1.20;1.10;;;23.90;48.00;;;;;;222323;1263;22517;-49
2023/12/11 13:56:51;;;;;;;1.30;1.20;;;23.80;48.50;;;;;;222598;1268;22643;-51
2023/12/11 14:01:57;;;;;;;3.20;1.30;;;23.80;48.40;;;;;;222352;1263;22686;-47
2023/12/11 14:07:02;;;;;;;2.90;0.80;;;23.80;48.60;;;;;;222476;1266;25440;-49
2023/12/11 14:12:07;;;;;;;2.00;1.40;;;23.90;48.40;;;;;;222386;1266;22789;-49
2023/12/11 14:17:12;;;;;;;2.20;1.50;;;23.80;48.20;;;;;;222816;1269;24384;-52
2023/12/11 14:22:16;;;;;;;2.30;0.90;;;23.50;48.90;;;;;;222792;1269;22705;-49
2023/12/11 14:27:22;;;;;;;2.10;1.20;;;23.40;49.40;;;;;;222285;1268;23244;-47
2023/12/11 14:32:27;;;;;;;2.80;1.30;;;23.30;49.60;;;;;;222991;1264;23141;-51
2023/12/11 14:37:32;;;;;;;1.40;1.20;;;23.20;49.70;;;;;;222340;1263;24317;-47
2023/12/11 14:42:37;;;;;;;0.80;0.80;;;23.20;49.60;;;;;;222409;1266;22645;-50
2023/12/11 14:47:41;;;;;;;3.20;1.50;;;23.10;49.70;;;;;;222092;1266;22549;-47
2023/12/11 14:52:46;;;;;;;2.30;1.50;;;23.00;49.70;;;;;;222786;1269;22577;-47
2023/12/11 14:57:50;;;;;;;3.00;1.30;;;23.10;49.70;;;;;;222024;1257;22580;-50
2023/12/11 15:02:55;;;;;;;1.60;1.30;;;23.10;50.10;;;;;;222959;1266;24194;-47
2023/12/11 15:07:59;;;;;;;1.60;1.20;;;23.30;50.00;;;;;;222767;1266;22543;-53
2023/12/11 15:13:06;;;;;;;2.10;1.00;;;23.80;49.30;;;;;;222881;1268;23626;-51
2023/12/11 15:18:11;;;;;;;2.70;1.00;;;24.20;47.90;;;;;;222815;1251;22564;-50
2023/12/11 15:23:16;;;;;;;5.10;1.30;;;24.30;48.10;;;;;;222899;1268;22521;-48
2023/12/11 15:28:20;;;;;;;4.20;2.30;;;24.20;48.40;;;;;;222335;1265;22533;-52
2023/12/11 15:33:25;;;;;;;2.00;1.40;;;24.10;48.10;;;;;;222683;1266;22921;-51
2023/12/11 15:38:31;;;;;;;2.00;1.40;;;24.00;48.40;;;;;;222145;1268;22645;-50
2023/12/11 15:43:35;;;;;;;2.10;1.20;;;24.00;48.50;;;;;;225503;1266;26236;-54
2023/12/11 15:48:43;;;;;;;2.90;1.40;;;24.10;48.10;;;;;;223764;1267;22517;-52
2023/12/11 15:53:48;;;;;;;1.90;1.60;;;24.00;48.20;;;;;;222577;1266;22522;-47
2023/12/11 15:58:52;;;;;;;2.80;1.80;;;23.80;48.40;;;;;;223061;1268;23929;-56
2023/12/11 16:03:57;;;;;;;3.70;1.80;;;23.70;48.90;;;;;;222923;1267;25226;-57
2023/12/11 16:09:03;;;;;;;4.40;1.80;;;23.70;49.70;;;;;;222297;1266;23896;-57
2023/12/11 16:14:07;;;;;;;5.00;1.90;;;23.70;49.80;;;;;;222904;1267;25609;-58
2023/12/11 16:19:12;;;;;;;2.90;1.80;;;23.60;50.30;;;;;;222970;1263;25101;-53
2023/12/11 16:24:17;;;;;;;3.80;1.90;;;23.60;49.90;;;;;;222616;1260;22522;-53
2023/12/11 16:29:22;;;;;;;2.30;1.90;;;23.60;50.60;;;;;;222781;1266;24441;-55
2023/12/11 16:34:28;;;;;;;4.60;2.40;;;23.60;50.60;;;;;;222328;1260;24104;-57
2023/12/11 16:39:32;;;;;;;3.80;2.20;;;23.50;51.20;;;;;;222698;1261;23167;-55
2023/12/11 16:44:37;;;;;;;3.00;2.40;;;23.50;52.80;;;;;;222812;1267;22524;-45
2023/12/11 16:49:41;;;;;;;2.20;2.00;;;23.50;54.40;;;;;;222896;1268;22876;-46
2023/12/11 16:55:03;;;;;;;;;;;23.50;53.60;;;;;;222807;1267;22507;-46
2023/12/11 17:00:09;;;;;;;5.20;2.40;;;23.40;53.70;;;;;;222378;1266;23014;-45
2023/12/11 17:05:14;;;;;;;2.90;2.20;;;23.40;53.10;;;;;;222441;1260;24190;-46
2023/12/11 17:10:18;;;;;;;2.50;1.90;;;23.30;52.80;;;;;;222464;1261;22599;-49
2023/12/11 17:15:22;;;;;;;5.70;2.20;;;23.40;53.20;;;;;;222790;1268;24238;-49
2023/12/11 17:20:26;;;;;;;3.90;2.00;;;23.30;53.30;;;;;;223126;1268;22645;-48
2023/12/11 17:25:31;;;;;;;2.10;1.90;;;23.30;53.20;;;;;;222809;1257;25501;-46
2023/12/11 17:30:36;;;;;;;2.40;1.80;;;23.20;53.30;;;;;;223105;1247;22518;-51
2023/12/11 17:35:40;;;;;;;2.30;1.90;;;23.10;53.40;;;;;;222349;1264;22649;-52
2023/12/11 17:40:44;;;;;;;2.20;1.60;;;23.10;53.50;;;;;;222358;1255;24199;-51
2023/12/11 17:45:49;;;;;;;8.40;2.10;;;23.30;53.70;;;;;;222908;1266;22519;-49
2023/12/11 17:50:55;;;;;;;4.80;2.00;;;23.80;52.90;;;;;;222493;1260;25227;-51
2023/12/11 17:55:59;;;;;;;4.10;1.70;;;24.10;52.20;;;;;;222902;1268;22518;-52
2023/12/11 18:01:04;;;;;;;2.80;1.90;;;24.20;51.90;;;;;;222627;1261;22622;-49
2023/12/11 18:06:16;;;;;;;2.70;1.80;;;24.20;51.90;;;;;;222641;1251;22759;-50
2023/12/11 18:11:20;;;;;;;2.80;2.20;;;24.10;52.00;;;;;;222682;1250;24193;-56
2023/12/11 18:16:24;;;;;;;4.70;2.30;;;24.00;52.40;;;;;;222059;1264;24247;-50
2023/12/11 18:21:29;;;;;;;3.70;2.30;;;23.90;52.40;;;;;;222335;1260;299642;-51
2023/12/11 18:26:33;;;;;;;6.50;3.20;;;24.00;52.30;;;;;;222839;1264;22511;-49
2023/12/11 18:31:41;;;;;;;2.70;2.30;;;24.10;52.10;;;;;;222724;1267;22543;-52
2023/12/11 18:36:45;;;;;;;5.60;3.10;;;24.10;51.80;;;;;;222732;1268;24190;-48
2023/12/11 18:41:49;;;;;;;7.80;2.90;;;24.10;51.40;;;;;;222637;1268;25684;-48
2023/12/11 18:46:53;;;;;;;3.70;2.90;;;24.10;51.40;;;;;;222657;1266;23893;-52
2023/12/11 18:52:02;;;;;;;3.80;3.30;;;24.10;51.20;;;;;;222646;1268;22817;-48
2023/12/11 18:57:06;;;;;;;3.70;3.00;;;24.00;51.00;;;;;;222906;1248;24733;-52
2023/12/11 19:02:11;;;;;;;3.00;2.40;;;23.80;52.00;;;;;;222642;1260;25331;-52
2023/12/11 19:07:16;;;;;;;5.50;2.80;;;23.70;51.50;;;;;;222494;1264;22539;-49
2023/12/11 19:12:21;;;;;;;9.40;3.30;;;23.70;51.70;;;;;;222372;1267;22644;-49
2023/12/11 19:17:25;;;;;;;10.60;4.90;;;23.70;52.00;;;;;;222706;1248;22750;-47
2023/12/11 19:22:30;;;;;;;8.50;2.80;;;23.60;51.60;;;;;;222137;1267;22520;-51
2023/12/11 19:27:36;;;;;;;15.40;3.60;;;23.60;52.30;;;;;;222321;1254;22636;-52
2023/12/11 19:32:41;;;;;;;10.60;2.70;;;23.60;52.50;;;;;;222713;1260;22528;-56
2023/12/11 19:37:46;;;;;;;6.60;3.10;;;23.40;52.50;;;;;;222826;1264;23013;-51
2023/12/11 19:42:51;;;;;;;9.70;3.10;;;23.30;53.30;;;;;;222946;1264;22517;-53
2023/12/11 19:47:55;;;;;;;10.20;3.20;;;23.30;54.00;;;;;;222757;1257;24200;-51
2023/12/11 19:53:00;;;;;;;11.50;3.20;;;23.40;54.80;;;;;;223113;1268;22518;-51
2023/12/11 19:58:04;;;;;;;13.00;2.80;;;23.30;55.10;;;;;;222683;1244;24045;-50
2023/12/11 20:03:09;;;;;;;9.00;2.60;;;23.30;55.80;;;;;;222351;1250;24434;-53
2023/12/11 20:08:13;;;;;;;14.60;4.50;;;23.20;55.80;;;;;;222391;1257;22537;-51
2023/12/11 20:13:17;;;;;;;8.40;2.90;;;23.20;56.10;;;;;;222381;1264;22882;-52
2023/12/11 20:18:21;;;;;;;6.40;2.80;;;23.10;56.20;;;;;;222370;1257;22517;-49
2023/12/11 20:23:26;;;;;;;5.00;3.00;;;23.10;57.30;;;;;;222452;1264;22639;-51
2023/12/11 20:28:32;;;;;;;7.00;2.70;;;23.10;57.40;;;;;;222345;1260;23928;-58
2023/12/11 20:33:37;;;;;;;11.80;3.40;;;23.10;57.70;;;;;;222372;1267;22592;-66
2023/12/11 20:38:42;;;;;;;4.40;2.70;;;23.10;58.30;;;;;;222826;1260;22630;-57
2023/12/11 20:43:49;;;;;;;10.90;2.80;;;23.10;57.80;;;;;;222773;1260;25315;-59
2023/12/11 20:48:53;;;;;;;7.30;2.60;;;23.00;58.30;;;;;;222402;1268;22520;-57
2023/12/11 20:53:58;;;;;;;15.60;3.50;;;23.00;59.20;;;;;;222956;1261;24205;-58
2023/12/11 20:59:02;;;;;;;8.40;2.80;;;23.00;58.80;;;;;;222995;1262;24215;-60
2023/12/11 21:04:07;;;;;;;11.40;3.00;;;22.90;58.80;;;;;;222445;1264;22646;-60
2023/12/11 21:09:14;;;;;;;7.00;2.50;;;23.00;59.00;;;;;;222463;1268;22521;-59
2023/12/11 21:14:19;;;;;;;3.80;2.30;;;23.00;58.30;;;;;;222410;1263;23930;-57
2023/12/11 21:19:23;;;;;;;11.00;3.20;;;22.90;58.90;;;;;;222672;1267;24241;-48
2023/12/11 21:24:28;;;;;;;4.20;2.50;;;23.00;58.30;;;;;;222557;1263;23882;-51
2023/12/11 21:29:33;;;;;;;6.90;3.00;;;23.30;57.10;;;;;;221983;1267;24249;-51
2023/12/11 21:34:41;;;;;;;6.60;2.40;;;23.70;56.30;;;;;;222065;1264;22517;-52
2023/12/11 21:39:46;;;;;;;15.10;3.00;;;23.90;55.50;;;;;;222269;1264;25284;-51
2023/12/11 21:44:50;;;;;;;6.30;2.20;;;24.10;57.50;;;;;;222186;1263;22524;-50
2023/12/11 21:49:55;;;;;;;8.10;2.40;;;24.20;57.70;;;;;;222051;1267;24228;-51
2023/12/11 21:54:59;;;;;;;5.10;2.20;;;24.10;56.80;;;;;;222052;1264;22517;-50
2023/12/11 22:00:05;;;;;;;8.10;2.90;;;24.10;56.30;;;;;;222622;1264;22636;-48
2023/12/11 22:05:14;;;;;;;7.70;2.50;;;23.80;56.50;;;;;;222579;1260;22553;-50
2023/12/11 22:10:18;;;;;;;6.40;2.40;;;23.70;56.50;;;;;;222195;1261;24340;-50
2023/12/11 22:15:22;;;;;;;6.60;2.00;;;23.60;56.50;;;;;;222581;1256;25274;-49
2023/12/11 22:20:26;;;;;;;4.10;2.00;;;23.60;56.60;;;;;;225219;1260;22639;-46
2023/12/11 22:25:30;;;;;;;5.20;2.40;;;23.70;56.70;;;;;;222291;1260;25412;-48
2023/12/11 22:30:35;;;;;;;5.50;2.30;;;23.70;56.10;;;;;;222610;1251;24189;-49
2023/12/11 22:35:40;;;;;;;5.70;2.50;;;23.60;56.40;;;;;;222408;1259;25306;-47
2023/12/11 22:40:46;;;;;;;9.20;2.80;;;23.50;56.60;;;;;;222354;1263;22521;-50
2023/12/11 22:45:52;;;;;;;4.90;2.10;;;23.50;59.00;;;;;;222702;1264;22567;-48
2023/12/11 22:50:56;;;;;;;5.30;2.20;;;23.50;61.10;;;;;;222385;1260;22528;-49
2023/12/11 22:56:01;;;;;;;10.60;2.80;;;23.40;60.70;;;;;;223167;1264;22547;-49
2023/12/11 23:01:06;;;;;;;4.00;2.20;;;23.40;60.70;;;;;;222625;1245;22526;-48
2023/12/11 23:06:12;;;;;;;7.90;2.80;;;23.30;60.30;;;;;;222650;1264;22521;-51
2023/12/11 23:11:17;;;;;;;6.90;2.60;;;23.30;60.90;;;;;;222595;1262;22517;-51
2023/12/11 23:16:28;;;;;;;5.00;2.30;;;23.30;60.70;;;;;;222614;1263;24278;-47
2023/12/11 23:21:33;;;;;;;4.60;2.20;;;23.30;60.00;;;;;;222680;1268;24375;-51
2023/12/11 23:26:38;;;;;;;6.80;2.60;;;23.30;59.90;;;;;;222456;1263;22598;-49
2023/12/11 23:31:42;;;;;;;4.50;1.90;;;23.20;59.80;;;;;;222713;1263;22544;-50
2023/12/11 23:36:46;;;;;;;4.90;1.70;;;23.10;59.70;;;;;;222446;1258;22515;-50
2023/12/11 23:41:51;;;;;;;5.60;2.00;;;23.10;59.80;;;;;;222823;1266;24441;-51
2023/12/11 23:46:59;;;;;;;3.70;1.80;;;23.10;59.50;;;;;;222255;1247;24221;-47
2023/12/11 23:52:04;;;;;;;4.20;2.00;;;23.00;59.30;;;;;;222933;1263;22514;-50
2023/12/11 23:57:08;;;;;;;3.00;1.70;;;23.00;59.20;;;;;;222978;1264;22646;-47
